CheckWX is a tool to help pilots better visualize weather data.  It is not intended as a substitute for an official pre-flight weather briefing.

14:27:39 UTC

DAAJ METAR
Djanet Inedbirene Airport
Djanet, Algeria
Current

28 mins ago

DAAJ 201400Z 22008KT CAVOK 40/09 Q1017
Observed
Jul-20 @ 14:00 UTC
Wind
  • 220° at 8 KTS
Visibility
10,000+ meters
Flight Rules
VFR
Cloud Levels
  • Clear skies
Temperature
40°C / 104°F
Dewpoint
C / 48°F
Humidity
15%
Altimeter
30.03" Hg
Pressure
1016.92 hPa
Previous

1 hour ago

DAAJ 201300Z 17006KT CAVOK 39/10 Q1017
Observed
Jul-20 @ 13:00 UTC
Wind
  • 170° at 6 KTS
Visibility
10,000+ meters
Flight Rules
VFR
Cloud Levels
  • Clear skies
Temperature
39°C / 102°F
Dewpoint
10°C / 50°F
Humidity
17%
Altimeter
30.03" Hg
Pressure
1016.92 hPa
Previous

2 hours ago

DAAJ 201200Z 17013KT CAVOK 37/08 Q1018
Observed
Jul-20 @ 12:00 UTC
Wind
  • 170° at 13 KTS
Visibility
10,000+ meters
Flight Rules
VFR
Cloud Levels
  • Clear skies
Temperature
37°C / 99°F
Dewpoint
C / 46°F
Humidity
17%
Altimeter
30.06" Hg
Pressure
1017.92 hPa